sensor_id;sensor_type;location;lat;lon;timestamp;P1;durP1;ratioP1;P2;durP2;ratioP2
54823;SDS011;40724;53.196;5.980;2023-03-23T00:01:47;11.90;;;8.63;;
54823;SDS011;40724;53.196;5.980;2023-03-23T00:04:15;10.23;;;8.10;;
54823;SDS011;40724;53.196;5.980;2023-03-23T00:06:41;10.65;;;6.95;;
54823;SDS011;40724;53.196;5.980;2023-03-23T00:09:10;10.32;;;7.47;;
54823;SDS011;40724;53.196;5.980;2023-03-23T00:11:37;9.65;;;7.78;;
54823;SDS011;40724;53.196;5.980;2023-03-23T00:14:04;10.93;;;8.55;;
54823;SDS011;40724;53.196;5.980;2023-03-23T00:16:31;15.38;;;9.65;;
54823;SDS011;40724;53.196;5.980;2023-03-23T00:19:02;14.77;;;11.57;;
54823;SDS011;40724;53.196;5.980;2023-03-23T00:21:41;15.38;;;12.02;;
54823;SDS011;40724;53.196;5.980;2023-03-23T00:24:09;18.80;;;14.95;;
54823;SDS011;40724;53.196;5.980;2023-03-23T00:26:41;22.55;;;16.67;;
54823;SDS011;40724;53.196;5.980;2023-03-23T00:29:16;23.42;;;17.85;;
54823;SDS011;40724;53.196;5.980;2023-03-23T00:31:47;22.25;;;18.17;;
54823;SDS011;40724;53.196;5.980;2023-03-23T00:34:14;26.92;;;20.15;;
54823;SDS011;40724;53.196;5.980;2023-03-23T00:36:48;26.27;;;19.00;;
54823;SDS011;40724;53.196;5.980;2023-03-23T00:39:16;25.95;;;17.58;;
54823;SDS011;40724;53.196;5.980;2023-03-23T00:41:43;22.83;;;17.13;;
54823;SDS011;40724;53.196;5.980;2023-03-23T00:44:09;22.73;;;16.42;;
54823;SDS011;40724;53.196;5.980;2023-03-23T00:46:35;26.52;;;17.15;;
54823;SDS011;40724;53.196;5.980;2023-03-23T00:49:10;19.52;;;12.55;;
54823;SDS011;40724;53.196;5.980;2023-03-23T00:51:38;15.00;;;11.57;;
54823;SDS011;40724;53.196;5.980;2023-03-23T00:54:04;14.65;;;9.50;;
54823;SDS011;40724;53.196;5.980;2023-03-23T00:56:30;9.95;;;8.13;;
54823;SDS011;40724;53.196;5.980;2023-03-23T00:58:56;10.15;;;7.03;;
54823;SDS011;40724;53.196;5.980;2023-03-23T01:01:21;10.68;;;6.68;;
54823;SDS011;40724;53.196;5.980;2023-03-23T01:03:47;9.10;;;6.35;;
54823;SDS011;40724;53.196;5.980;2023-03-23T01:06:15;8.50;;;6.70;;
54823;SDS011;40724;53.196;5.980;2023-03-23T01:08:41;8.88;;;7.13;;
54823;SDS011;40724;53.196;5.980;2023-03-23T01:11:11;11.32;;;6.90;;
54823;SDS011;40724;53.196;5.980;2023-03-23T01:13:39;11.00;;;8.00;;
54823;SDS011;40724;53.196;5.980;2023-03-23T01:16:07;10.45;;;8.52;;
54823;SDS011;40724;53.196;5.980;2023-03-23T01:18:33;13.43;;;8.75;;
54823;SDS011;40724;53.196;5.980;2023-03-23T01:21:10;11.77;;;9.60;;
54823;SDS011;40724;53.196;5.980;2023-03-23T01:23:38;13.55;;;9.63;;
54823;SDS011;40724;53.196;5.980;2023-03-23T01:26:05;12.48;;;9.88;;
54823;SDS011;40724;53.196;5.980;2023-03-23T01:28:33;11.40;;;9.48;;
54823;SDS011;40724;53.196;5.980;2023-03-23T01:31:03;15.32;;;9.60;;
54823;SDS011;40724;53.196;5.980;2023-03-23T01:33:31;12.98;;;9.18;;
54823;SDS011;40724;53.196;5.980;2023-03-23T01:35:58;15.20;;;10.63;;
54823;SDS011;40724;53.196;5.980;2023-03-23T01:38:28;15.63;;;9.32;;
54823;SDS011;40724;53.196;5.980;2023-03-23T01:40:54;14.13;;;10.20;;
54823;SDS011;40724;53.196;5.980;2023-03-23T01:43:21;15.52;;;9.82;;
54823;SDS011;40724;53.196;5.980;2023-03-23T01:45:47;13.98;;;9.25;;
54823;SDS011;40724;53.196;5.980;2023-03-23T01:48:32;15.98;;;9.57;;
54823;SDS011;40724;53.196;5.980;2023-03-23T01:51:08;14.25;;;8.80;;
54823;SDS011;40724;53.196;5.980;2023-03-23T01:53:42;10.20;;;8.32;;
54823;SDS011;40724;53.196;5.980;2023-03-23T01:56:14;11.27;;;7.72;;
54823;SDS011;40724;53.196;5.980;2023-03-23T01:58:44;13.23;;;7.45;;
54823;SDS011;40724;53.196;5.980;2023-03-23T02:01:11;9.55;;;7.28;;
54823;SDS011;40724;53.196;5.980;2023-03-23T02:03:41;16.77;;;7.20;;
54823;SDS011;40724;53.196;5.980;2023-03-23T02:06:10;8.48;;;6.13;;
54823;SDS011;40724;53.196;5.980;2023-03-23T02:08:37;9.32;;;6.15;;
54823;SDS011;40724;53.196;5.980;2023-03-23T02:11:17;8.10;;;6.57;;
54823;SDS011;40724;53.196;5.980;2023-03-23T02:13:44;10.35;;;6.60;;
54823;SDS011;40724;53.196;5.980;2023-03-23T02:25:02;11.73;;;5.75;;
54823;SDS011;40724;53.196;5.980;2023-03-23T02:33:43;7.38;;;5.55;;
54823;SDS011;40724;53.196;5.980;2023-03-23T02:36:12;10.88;;;5.28;;
54823;SDS011;40724;53.196;5.980;2023-03-23T02:39:02;7.22;;;4.97;;
54823;SDS011;40724;53.196;5.980;2023-03-23T02:41:36;10.40;;;5.43;;
54823;SDS011;40724;53.196;5.980;2023-03-23T02:44:10;9.15;;;5.40;;
54823;SDS011;40724;53.196;5.980;2023-03-23T02:46:39;11.20;;;4.88;;
54823;SDS011;40724;53.196;5.980;2023-03-23T02:49:06;8.80;;;4.38;;
54823;SDS011;40724;53.196;5.980;2023-03-23T02:51:34;8.38;;;5.30;;
54823;SDS011;40724;53.196;5.980;2023-03-23T02:54:02;9.52;;;4.75;;
54823;SDS011;40724;53.196;5.980;2023-03-23T02:56:29;8.77;;;4.38;;
54823;SDS011;40724;53.196;5.980;2023-03-23T02:58:57;6.53;;;4.60;;
54823;SDS011;40724;53.196;5.980;2023-03-23T03:03:58;8.82;;;4.82;;
54823;SDS011;40724;53.196;5.980;2023-03-23T03:11:56;11.32;;;5.10;;
54823;SDS011;40724;53.196;5.980;2023-03-23T03:14:31;7.85;;;5.78;;
54823;SDS011;40724;53.196;5.980;2023-03-23T03:17:25;7.82;;;5.10;;
54823;SDS011;40724;53.196;5.980;2023-03-23T03:19:57;8.30;;;4.68;;
54823;SDS011;40724;53.196;5.980;2023-03-23T03:22:35;9.85;;;4.55;;
54823;SDS011;40724;53.196;5.980;2023-03-23T03:25:07;9.50;;;4.88;;
54823;SDS011;40724;53.196;5.980;2023-03-23T03:27:34;8.85;;;4.45;;
54823;SDS011;40724;53.196;5.980;2023-03-23T03:30:01;9.18;;;4.00;;
54823;SDS011;40724;53.196;5.980;2023-03-23T03:32:41;10.77;;;4.40;;
54823;SDS011;40724;53.196;5.980;2023-03-23T03:35:18;9.57;;;4.63;;
54823;SDS011;40724;53.196;5.980;2023-03-23T03:37:49;12.32;;;4.97;;
54823;SDS011;40724;53.196;5.980;2023-03-23T03:40:17;7.10;;;3.67;;
54823;SDS011;40724;53.196;5.980;2023-03-23T03:42:45;12.93;;;3.92;;
54823;SDS011;40724;53.196;5.980;2023-03-23T03:45:12;6.28;;;3.78;;
54823;SDS011;40724;53.196;5.980;2023-03-23T03:47:40;11.25;;;4.97;;
54823;SDS011;40724;53.196;5.980;2023-03-23T03:50:09;7.63;;;4.95;;
54823;SDS011;40724;53.196;5.980;2023-03-23T03:52:36;8.20;;;5.63;;
54823;SDS011;40724;53.196;5.980;2023-03-23T03:55:04;9.00;;;4.70;;
54823;SDS011;40724;53.196;5.980;2023-03-23T03:57:32;8.20;;;5.13;;
54823;SDS011;40724;53.196;5.980;2023-03-23T03:59:58;7.28;;;4.15;;
54823;SDS011;40724;53.196;5.980;2023-03-23T04:02:24;7.38;;;4.03;;
54823;SDS011;40724;53.196;5.980;2023-03-23T04:04:50;9.43;;;4.90;;
54823;SDS011;40724;53.196;5.980;2023-03-23T04:07:19;6.70;;;3.97;;
54823;SDS011;40724;53.196;5.980;2023-03-23T04:09:46;5.55;;;3.83;;
54823;SDS011;40724;53.196;5.980;2023-03-23T04:12:15;8.45;;;4.68;;
54823;SDS011;40724;53.196;5.980;2023-03-23T04:14:41;10.30;;;4.40;;
54823;SDS011;40724;53.196;5.980;2023-03-23T04:17:07;8.63;;;4.10;;
54823;SDS011;40724;53.196;5.980;2023-03-23T04:19:35;7.55;;;3.97;;
54823;SDS011;40724;53.196;5.980;2023-03-23T04:22:02;10.40;;;3.65;;
54823;SDS011;40724;53.196;5.980;2023-03-23T04:24:29;5.40;;;3.30;;
54823;SDS011;40724;53.196;5.980;2023-03-23T04:26:58;12.00;;;3.15;;
54823;SDS011;40724;53.196;5.980;2023-03-23T04:29:25;10.35;;;3.20;;
54823;SDS011;40724;53.196;5.980;2023-03-23T04:31:51;10.25;;;3.58;;
54823;SDS011;40724;53.196;5.980;2023-03-23T04:34:17;9.95;;;3.10;;
54823;SDS011;40724;53.196;5.980;2023-03-23T04:36:44;6.07;;;3.42;;
54823;SDS011;40724;53.196;5.980;2023-03-23T04:39:11;12.18;;;3.33;;
54823;SDS011;40724;53.196;5.980;2023-03-23T04:41:38;10.40;;;4.18;;
54823;SDS011;40724;53.196;5.980;2023-03-23T04:44:05;9.27;;;4.25;;
54823;SDS011;40724;53.196;5.980;2023-03-23T04:46:32;7.68;;;3.45;;
54823;SDS011;40724;53.196;5.980;2023-03-23T04:48:58;12.63;;;4.78;;
54823;SDS011;40724;53.196;5.980;2023-03-23T04:51:25;10.02;;;4.10;;
54823;SDS011;40724;53.196;5.980;2023-03-23T04:53:52;9.93;;;4.38;;
54823;SDS011;40724;53.196;5.980;2023-03-23T04:56:18;7.18;;;3.35;;
54823;SDS011;40724;53.196;5.980;2023-03-23T04:58:45;8.63;;;3.83;;
54823;SDS011;40724;53.196;5.980;2023-03-23T05:01:11;12.13;;;4.65;;
54823;SDS011;40724;53.196;5.980;2023-03-23T05:03:40;12.93;;;4.05;;
54823;SDS011;40724;53.196;5.980;2023-03-23T05:06:06;8.85;;;4.43;;
54823;SDS011;40724;53.196;5.980;2023-03-23T05:08:32;13.77;;;3.80;;
54823;SDS011;40724;53.196;5.980;2023-03-23T05:10:59;13.60;;;6.00;;
54823;SDS011;40724;53.196;5.980;2023-03-23T05:13:28;15.48;;;4.10;;
54823;SDS011;40724;53.196;5.980;2023-03-23T05:15:54;16.08;;;5.03;;
54823;SDS011;40724;53.196;5.980;2023-03-23T05:18:20;9.45;;;3.88;;
54823;SDS011;40724;53.196;5.980;2023-03-23T05:20:46;17.80;;;5.35;;
54823;SDS011;40724;53.196;5.980;2023-03-23T05:23:13;12.75;;;5.65;;
54823;SDS011;40724;53.196;5.980;2023-03-23T05:25:40;13.65;;;4.43;;
54823;SDS011;40724;53.196;5.980;2023-03-23T05:28:09;14.38;;;5.53;;
54823;SDS011;40724;53.196;5.980;2023-03-23T05:30:36;15.90;;;4.82;;
54823;SDS011;40724;53.196;5.980;2023-03-23T05:33:03;12.27;;;5.20;;
54823;SDS011;40724;53.196;5.980;2023-03-23T05:35:30;19.73;;;5.40;;
54823;SDS011;40724;53.196;5.980;2023-03-23T05:37:56;14.02;;;5.13;;
54823;SDS011;40724;53.196;5.980;2023-03-23T05:40:24;11.75;;;4.70;;
54823;SDS011;40724;53.196;5.980;2023-03-23T05:42:51;15.95;;;5.13;;
54823;SDS011;40724;53.196;5.980;2023-03-23T05:45:17;24.00;;;5.75;;
54823;SDS011;40724;53.196;5.980;2023-03-23T05:47:44;15.07;;;5.10;;
54823;SDS011;40724;53.196;5.980;2023-03-23T05:50:10;16.67;;;6.15;;
54823;SDS011;40724;53.196;5.980;2023-03-23T05:52:37;16.50;;;5.88;;
54823;SDS011;40724;53.196;5.980;2023-03-23T05:55:03;18.80;;;8.10;;
54823;SDS011;40724;53.196;5.980;2023-03-23T05:57:30;18.30;;;5.68;;
54823;SDS011;40724;53.196;5.980;2023-03-23T05:59:57;16.08;;;5.53;;
54823;SDS011;40724;53.196;5.980;2023-03-23T06:02:24;12.45;;;5.55;;
54823;SDS011;40724;53.196;5.980;2023-03-23T06:04:53;13.55;;;5.47;;
54823;SDS011;40724;53.196;5.980;2023-03-23T06:07:24;18.15;;;5.28;;
54823;SDS011;40724;53.196;5.980;2023-03-23T06:09:50;11.63;;;5.03;;
54823;SDS011;40724;53.196;5.980;2023-03-23T06:12:17;17.45;;;4.43;;
54823;SDS011;40724;53.196;5.980;2023-03-23T06:14:46;18.88;;;5.53;;
54823;SDS011;40724;53.196;5.980;2023-03-23T06:17:14;10.90;;;3.45;;
54823;SDS011;40724;53.196;5.980;2023-03-23T06:19:41;8.30;;;3.63;;
54823;SDS011;40724;53.196;5.980;2023-03-23T06:22:07;9.02;;;3.83;;
54823;SDS011;40724;53.196;5.980;2023-03-23T06:24:32;13.45;;;2.92;;
54823;SDS011;40724;53.196;5.980;2023-03-23T06:26:59;6.20;;;2.60;;
54823;SDS011;40724;53.196;5.980;2023-03-23T06:29:25;8.38;;;2.58;;
54823;SDS011;40724;53.196;5.980;2023-03-23T06:31:52;11.50;;;3.10;;
54823;SDS011;40724;53.196;5.980;2023-03-23T06:34:21;8.05;;;2.90;;
54823;SDS011;40724;53.196;5.980;2023-03-23T06:36:47;8.57;;;2.97;;
54823;SDS011;40724;53.196;5.980;2023-03-23T06:39:12;8.45;;;3.60;;
54823;SDS011;40724;53.196;5.980;2023-03-23T06:41:39;9.65;;;3.60;;
54823;SDS011;40724;53.196;5.980;2023-03-23T06:44:05;8.38;;;2.78;;
54823;SDS011;40724;53.196;5.980;2023-03-23T06:46:33;10.73;;;3.42;;
54823;SDS011;40724;53.196;5.980;2023-03-23T06:49:00;11.52;;;3.45;;
54823;SDS011;40724;53.196;5.980;2023-03-23T06:51:25;12.45;;;3.83;;
54823;SDS011;40724;53.196;5.980;2023-03-23T06:53:51;10.70;;;3.28;;
54823;SDS011;40724;53.196;5.980;2023-03-23T06:56:17;11.52;;;3.88;;
54823;SDS011;40724;53.196;5.980;2023-03-23T06:58:43;14.85;;;5.53;;
54823;SDS011;40724;53.196;5.980;2023-03-23T07:01:10;11.48;;;4.28;;
54823;SDS011;40724;53.196;5.980;2023-03-23T07:03:36;11.38;;;5.68;;
54823;SDS011;40724;53.196;5.980;2023-03-23T07:06:03;17.35;;;5.45;;
54823;SDS011;40724;53.196;5.980;2023-03-23T07:08:29;16.50;;;6.47;;
54823;SDS011;40724;53.196;5.980;2023-03-23T07:10:55;18.95;;;7.15;;
54823;SDS011;40724;53.196;5.980;2023-03-23T07:13:22;17.17;;;7.15;;
54823;SDS011;40724;53.196;5.980;2023-03-23T07:15:48;22.65;;;7.28;;
54823;SDS011;40724;53.196;5.980;2023-03-23T07:18:14;21.42;;;7.38;;
54823;SDS011;40724;53.196;5.980;2023-03-23T07:20:40;27.23;;;8.43;;
54823;SDS011;40724;53.196;5.980;2023-03-23T07:23:06;31.65;;;7.80;;
54823;SDS011;40724;53.196;5.980;2023-03-23T07:25:33;24.10;;;7.40;;
54823;SDS011;40724;53.196;5.980;2023-03-23T07:28:00;23.42;;;7.22;;
54823;SDS011;40724;53.196;5.980;2023-03-23T07:30:27;27.95;;;8.65;;
54823;SDS011;40724;53.196;5.980;2023-03-23T07:32:57;19.60;;;7.68;;
54823;SDS011;40724;53.196;5.980;2023-03-23T07:35:23;20.58;;;7.97;;
54823;SDS011;40724;53.196;5.980;2023-03-23T07:37:50;20.27;;;7.10;;
54823;SDS011;40724;53.196;5.980;2023-03-23T07:40:17;22.83;;;6.95;;
54823;SDS011;40724;53.196;5.980;2023-03-23T07:42:51;25.77;;;7.32;;
54823;SDS011;40724;53.196;5.980;2023-03-23T07:45:20;28.80;;;7.53;;
54823;SDS011;40724;53.196;5.980;2023-03-23T07:47:46;24.88;;;8.13;;
54823;SDS011;40724;53.196;5.980;2023-03-23T07:50:12;26.48;;;7.55;;
54823;SDS011;40724;53.196;5.980;2023-03-23T07:52:38;22.65;;;7.65;;
54823;SDS011;40724;53.196;5.980;2023-03-23T07:55:07;19.00;;;7.70;;
54823;SDS011;40724;53.196;5.980;2023-03-23T07:57:36;27.90;;;9.90;;
54823;SDS011;40724;53.196;5.980;2023-03-23T08:00:03;22.92;;;8.52;;
54823;SDS011;40724;53.196;5.980;2023-03-23T08:02:36;32.08;;;8.35;;
54823;SDS011;40724;53.196;5.980;2023-03-23T08:05:02;23.83;;;7.03;;
54823;SDS011;40724;53.196;5.980;2023-03-23T08:07:28;25.23;;;8.25;;
54823;SDS011;40724;53.196;5.980;2023-03-23T08:09:53;24.95;;;9.32;;
54823;SDS011;40724;53.196;5.980;2023-03-23T08:12:19;28.27;;;8.55;;
54823;SDS011;40724;53.196;5.980;2023-03-23T08:14:46;21.83;;;8.30;;
54823;SDS011;40724;53.196;5.980;2023-03-23T08:17:13;23.48;;;7.72;;
54823;SDS011;40724;53.196;5.980;2023-03-23T08:19:39;22.25;;;7.10;;
54823;SDS011;40724;53.196;5.980;2023-03-23T08:22:05;25.90;;;7.68;;
54823;SDS011;40724;53.196;5.980;2023-03-23T08:24:32;22.70;;;7.82;;
54823;SDS011;40724;53.196;5.980;2023-03-23T08:26:58;17.10;;;7.60;;
54823;SDS011;40724;53.196;5.980;2023-03-23T08:29:26;22.77;;;7.65;;
54823;SDS011;40724;53.196;5.980;2023-03-23T08:31:52;17.67;;;6.88;;
54823;SDS011;40724;53.196;5.980;2023-03-23T08:34:18;30.25;;;8.40;;
54823;SDS011;40724;53.196;5.980;2023-03-23T08:36:45;23.27;;;7.75;;
54823;SDS011;40724;53.196;5.980;2023-03-23T08:39:11;19.20;;;6.97;;
54823;SDS011;40724;53.196;5.980;2023-03-23T08:41:39;30.08;;;8.18;;
54823;SDS011;40724;53.196;5.980;2023-03-23T08:44:06;23.48;;;6.85;;
54823;SDS011;40724;53.196;5.980;2023-03-23T08:46:32;22.48;;;8.23;;
54823;SDS011;40724;53.196;5.980;2023-03-23T08:48:58;26.30;;;9.45;;
54823;SDS011;40724;53.196;5.980;2023-03-23T08:51:24;23.88;;;6.65;;
54823;SDS011;40724;53.196;5.980;2023-03-23T08:53:50;19.90;;;6.90;;
54823;SDS011;40724;53.196;5.980;2023-03-23T08:56:17;18.10;;;6.85;;
54823;SDS011;40724;53.196;5.980;2023-03-23T08:58:43;19.77;;;7.55;;
54823;SDS011;40724;53.196;5.980;2023-03-23T09:01:09;28.85;;;8.25;;
54823;SDS011;40724;53.196;5.980;2023-03-23T09:03:36;24.08;;;7.57;;
54823;SDS011;40724;53.196;5.980;2023-03-23T09:06:03;25.73;;;7.47;;
54823;SDS011;40724;53.196;5.980;2023-03-23T09:08:31;20.73;;;6.22;;
54823;SDS011;40724;53.196;5.980;2023-03-23T09:11:07;24.52;;;7.97;;
54823;SDS011;40724;53.196;5.980;2023-03-23T09:13:35;25.70;;;7.28;;
54823;SDS011;40724;53.196;5.980;2023-03-23T09:16:02;16.42;;;6.22;;
54823;SDS011;40724;53.196;5.980;2023-03-23T09:18:29;26.08;;;7.28;;
54823;SDS011;40724;53.196;5.980;2023-03-23T09:20:57;23.75;;;8.52;;
54823;SDS011;40724;53.196;5.980;2023-03-23T09:23:24;29.92;;;7.57;;
54823;SDS011;40724;53.196;5.980;2023-03-23T09:25:50;17.30;;;7.82;;
54823;SDS011;40724;53.196;5.980;2023-03-23T09:28:17;29.13;;;9.05;;
54823;SDS011;40724;53.196;5.980;2023-03-23T09:30:43;27.63;;;7.60;;
54823;SDS011;40724;53.196;5.980;2023-03-23T09:33:10;24.17;;;8.30;;
54823;SDS011;40724;53.196;5.980;2023-03-23T09:35:37;25.05;;;8.15;;
54823;SDS011;40724;53.196;5.980;2023-03-23T09:38:04;17.65;;;6.60;;
54823;SDS011;40724;53.196;5.980;2023-03-23T09:40:50;20.13;;;7.10;;
54823;SDS011;40724;53.196;5.980;2023-03-23T09:49:17;21.77;;;8.05;;
54823;SDS011;40724;53.196;5.980;2023-03-23T09:51:53;25.15;;;7.47;;
54823;SDS011;40724;53.196;5.980;2023-03-23T09:54:55;18.77;;;6.47;;
54823;SDS011;40724;53.196;5.980;2023-03-23T09:59:46;22.35;;;7.68;;
54823;SDS011;40724;53.196;5.980;2023-03-23T10:02:14;31.75;;;8.25;;
54823;SDS011;40724;53.196;5.980;2023-03-23T10:04:46;26.58;;;6.60;;
54823;SDS011;40724;53.196;5.980;2023-03-23T10:07:18;15.43;;;6.53;;
54823;SDS011;40724;53.196;5.980;2023-03-23T10:09:45;22.30;;;7.25;;
54823;SDS011;40724;53.196;5.980;2023-03-23T10:14:45;24.83;;;6.82;;
54823;SDS011;40724;53.196;5.980;2023-03-23T10:17:17;22.77;;;7.95;;
54823;SDS011;40724;53.196;5.980;2023-03-23T10:22:12;20.25;;;6.15;;
54823;SDS011;40724;53.196;5.980;2023-03-23T10:24:43;22.15;;;6.88;;
54823;SDS011;40724;53.196;5.980;2023-03-23T10:27:36;20.10;;;6.82;;
54823;SDS011;40724;53.196;5.980;2023-03-23T10:30:42;21.27;;;5.82;;
54823;SDS011;40724;53.196;5.980;2023-03-23T10:32:51;18.50;;;7.60;;
54823;SDS011;40724;53.196;5.980;2023-03-23T10:35:21;20.85;;;6.20;;
54823;SDS011;40724;53.196;5.980;2023-03-23T10:37:50;24.15;;;7.03;;
54823;SDS011;40724;53.196;5.980;2023-03-23T10:40:19;17.77;;;6.18;;
54823;SDS011;40724;53.196;5.980;2023-03-23T10:42:49;16.60;;;5.78;;
54823;SDS011;40724;53.196;5.980;2023-03-23T10:47:55;22.55;;;6.72;;
54823;SDS011;40724;53.196;5.980;2023-03-23T10:50:23;21.92;;;6.45;;
54823;SDS011;40724;53.196;5.980;2023-03-23T10:52:58;20.25;;;6.10;;
54823;SDS011;40724;53.196;5.980;2023-03-23T10:55:34;12.77;;;6.07;;
54823;SDS011;40724;53.196;5.980;2023-03-23T10:58:27;15.27;;;6.72;;
54823;SDS011;40724;53.196;5.980;2023-03-23T11:00:57;19.65;;;7.35;;
54823;SDS011;40724;53.196;5.980;2023-03-23T11:03:38;15.57;;;5.25;;
54823;SDS011;40724;53.196;5.980;2023-03-23T11:06:07;26.25;;;5.57;;
54823;SDS011;40724;53.196;5.980;2023-03-23T11:08:36;15.70;;;5.28;;
54823;SDS011;40724;53.196;5.980;2023-03-23T11:11:11;21.83;;;5.80;;
54823;SDS011;40724;53.196;5.980;2023-03-23T11:13:45;18.00;;;7.70;;
54823;SDS011;40724;53.196;5.980;2023-03-23T11:16:24;21.77;;;6.10;;
54823;SDS011;40724;53.196;5.980;2023-03-23T11:18:51;22.42;;;7.22;;
54823;SDS011;40724;53.196;5.980;2023-03-23T11:21:17;15.20;;;4.47;;
54823;SDS011;40724;53.196;5.980;2023-03-23T11:23:55;14.50;;;4.55;;
54823;SDS011;40724;53.196;5.980;2023-03-23T11:26:30;13.45;;;5.00;;
54823;SDS011;40724;53.196;5.980;2023-03-23T11:28:59;10.35;;;4.35;;
54823;SDS011;40724;53.196;5.980;2023-03-23T11:31:35;18.10;;;5.55;;
54823;SDS011;40724;53.196;5.980;2023-03-23T11:34:03;13.70;;;5.10;;
54823;SDS011;40724;53.196;5.980;2023-03-23T11:36:34;13.52;;;4.80;;
54823;SDS011;40724;53.196;5.980;2023-03-23T11:39:01;11.75;;;5.18;;
54823;SDS011;40724;53.196;5.980;2023-03-23T11:41:32;17.40;;;4.53;;
54823;SDS011;40724;53.196;5.980;2023-03-23T11:44:01;15.95;;;4.38;;
54823;SDS011;40724;53.196;5.980;2023-03-23T11:46:38;15.95;;;4.53;;
54823;SDS011;40724;53.196;5.980;2023-03-23T11:49:28;12.25;;;4.35;;
54823;SDS011;40724;53.196;5.980;2023-03-23T11:52:01;13.80;;;5.30;;
54823;SDS011;40724;53.196;5.980;2023-03-23T11:54:33;17.42;;;5.10;;
54823;SDS011;40724;53.196;5.980;2023-03-23T11:57:00;11.20;;;4.50;;
54823;SDS011;40724;53.196;5.980;2023-03-23T11:59:28;13.05;;;5.05;;
54823;SDS011;40724;53.196;5.980;2023-03-23T12:06:58;18.52;;;4.93;;
54823;SDS011;40724;53.196;5.980;2023-03-23T12:12:05;11.95;;;4.97;;
54823;SDS011;40724;53.196;5.980;2023-03-23T12:14:59;15.68;;;4.78;;
54823;SDS011;40724;53.196;5.980;2023-03-23T12:25:12;16.05;;;4.47;;
54823;SDS011;40724;53.196;5.980;2023-03-23T12:42:58;15.15;;;4.82;;
54823;SDS011;40724;53.196;5.980;2023-03-23T12:48:16;12.93;;;5.38;;
54823;SDS011;40724;53.196;5.980;2023-03-23T12:50:47;16.10;;;6.80;;
54823;SDS011;40724;53.196;5.980;2023-03-23T12:53:33;12.95;;;5.80;;
54823;SDS011;40724;53.196;5.980;2023-03-23T12:58:49;15.80;;;5.30;;
54823;SDS011;40724;53.196;5.980;2023-03-23T13:01:18;12.73;;;4.45;;
54823;SDS011;40724;53.196;5.980;2023-03-23T13:11:40;13.00;;;5.80;;
54823;SDS011;40724;53.196;5.980;2023-03-23T13:16:46;11.57;;;5.05;;
54823;SDS011;40724;53.196;5.980;2023-03-23T13:22:11;20.33;;;5.32;;
54823;SDS011;40724;53.196;5.980;2023-03-23T13:24:54;17.53;;;4.90;;
54823;SDS011;40724;53.196;5.980;2023-03-23T13:27:24;19.23;;;4.97;;
54823;SDS011;40724;53.196;5.980;2023-03-23T13:29:53;13.88;;;4.72;;
54823;SDS011;40724;53.196;5.980;2023-03-23T13:32:20;19.02;;;6.38;;
54823;SDS011;40724;53.196;5.980;2023-03-23T13:34:47;16.42;;;5.50;;
54823;SDS011;40724;53.196;5.980;2023-03-23T13:37:26;17.52;;;6.45;;
54823;SDS011;40724;53.196;5.980;2023-03-23T13:39:53;21.27;;;6.80;;
54823;SDS011;40724;53.196;5.980;2023-03-23T13:42:27;16.70;;;6.28;;
54823;SDS011;40724;53.196;5.980;2023-03-23T13:45:06;18.58;;;4.68;;
54823;SDS011;40724;53.196;5.980;2023-03-23T13:47:36;15.48;;;5.32;;
54823;SDS011;40724;53.196;5.980;2023-03-23T13:57:53;15.55;;;4.80;;
54823;SDS011;40724;53.196;5.980;2023-03-23T14:00:26;16.92;;;5.05;;
54823;SDS011;40724;53.196;5.980;2023-03-23T14:05:38;18.15;;;5.28;;
54823;SDS011;40724;53.196;5.980;2023-03-23T14:10:44;9.23;;;4.13;;
54823;SDS011;40724;53.196;5.980;2023-03-23T14:13:41;13.55;;;4.32;;
54823;SDS011;40724;53.196;5.980;2023-03-23T14:16:18;9.73;;;5.05;;
54823;SDS011;40724;53.196;5.980;2023-03-23T14:18:52;12.07;;;3.88;;
54823;SDS011;40724;53.196;5.980;2023-03-23T14:24:11;10.00;;;3.70;;
54823;SDS011;40724;53.196;5.980;2023-03-23T14:26:37;12.65;;;3.40;;
54823;SDS011;40724;53.196;5.980;2023-03-23T14:29:04;10.15;;;3.70;;
54823;SDS011;40724;53.196;5.980;2023-03-23T14:31:31;12.90;;;4.75;;
54823;SDS011;40724;53.196;5.980;2023-03-23T14:34:00;12.27;;;4.78;;
54823;SDS011;40724;53.196;5.980;2023-03-23T14:36:28;9.30;;;3.47;;
54823;SDS011;40724;53.196;5.980;2023-03-23T14:41:31;13.57;;;4.28;;
54823;SDS011;40724;53.196;5.980;2023-03-23T14:44:01;15.43;;;3.70;;
54823;SDS011;40724;53.196;5.980;2023-03-23T14:46:29;13.23;;;4.00;;
54823;SDS011;40724;53.196;5.980;2023-03-23T14:48:56;11.30;;;3.45;;
54823;SDS011;40724;53.196;5.980;2023-03-23T14:51:25;9.50;;;3.55;;
54823;SDS011;40724;53.196;5.980;2023-03-23T14:53:52;7.57;;;3.42;;
54823;SDS011;40724;53.196;5.980;2023-03-23T14:56:19;22.10;;;4.55;;
54823;SDS011;40724;53.196;5.980;2023-03-23T14:58:48;13.52;;;4.20;;
54823;SDS011;40724;53.196;5.980;2023-03-23T15:01:24;8.88;;;3.47;;
54823;SDS011;40724;53.196;5.980;2023-03-23T15:03:53;12.20;;;5.43;;
54823;SDS011;40724;53.196;5.980;2023-03-23T15:06:21;13.85;;;4.00;;
54823;SDS011;40724;53.196;5.980;2023-03-23T15:08:49;10.40;;;4.35;;
54823;SDS011;40724;53.196;5.980;2023-03-23T15:13:44;7.72;;;3.45;;
54823;SDS011;40724;53.196;5.980;2023-03-23T15:16:30;16.38;;;5.07;;
54823;SDS011;40724;53.196;5.980;2023-03-23T15:19:04;15.57;;;4.78;;
54823;SDS011;40724;53.196;5.980;2023-03-23T15:21:34;14.10;;;3.50;;
54823;SDS011;40724;53.196;5.980;2023-03-23T15:24:01;14.02;;;3.85;;
54823;SDS011;40724;53.196;5.980;2023-03-23T15:26:41;11.55;;;3.45;;
54823;SDS011;40724;53.196;5.980;2023-03-23T15:31:38;7.80;;;3.60;;
54823;SDS011;40724;53.196;5.980;2023-03-23T15:34:04;14.40;;;4.32;;
54823;SDS011;40724;53.196;5.980;2023-03-23T15:36:34;11.77;;;4.38;;
54823;SDS011;40724;53.196;5.980;2023-03-23T15:39:00;9.40;;;4.13;;
54823;SDS011;40724;53.196;5.980;2023-03-23T15:41:28;11.25;;;4.60;;
54823;SDS011;40724;53.196;5.980;2023-03-23T15:43:56;12.13;;;4.53;;
54823;SDS011;40724;53.196;5.980;2023-03-23T15:46:24;13.52;;;5.35;;
54823;SDS011;40724;53.196;5.980;2023-03-23T15:51:19;16.52;;;6.43;;
54823;SDS011;40724;53.196;5.980;2023-03-23T15:53:45;14.10;;;6.00;;
54823;SDS011;40724;53.196;5.980;2023-03-23T15:56:12;14.18;;;4.82;;
54823;SDS011;40724;53.196;5.980;2023-03-23T15:58:39;17.50;;;6.20;;
54823;SDS011;40724;53.196;5.980;2023-03-23T16:01:07;12.90;;;4.55;;
54823;SDS011;40724;53.196;5.980;2023-03-23T16:03:55;14.27;;;5.03;;
54823;SDS011;40724;53.196;5.980;2023-03-23T16:06:24;13.32;;;5.82;;
54823;SDS011;40724;53.196;5.980;2023-03-23T16:08:54;18.63;;;4.78;;
54823;SDS011;40724;53.196;5.980;2023-03-23T16:11:20;17.35;;;5.35;;
54823;SDS011;40724;53.196;5.980;2023-03-23T16:13:47;16.00;;;5.00;;
54823;SDS011;40724;53.196;5.980;2023-03-23T16:16:14;15.98;;;4.95;;
54823;SDS011;40724;53.196;5.980;2023-03-23T16:18:41;18.85;;;6.70;;
54823;SDS011;40724;53.196;5.980;2023-03-23T16:21:07;17.40;;;5.13;;
54823;SDS011;40724;53.196;5.980;2023-03-23T16:23:33;16.60;;;5.35;;
54823;SDS011;40724;53.196;5.980;2023-03-23T16:25:59;17.15;;;5.03;;
54823;SDS011;40724;53.196;5.980;2023-03-23T16:28:25;21.73;;;5.20;;
54823;SDS011;40724;53.196;5.980;2023-03-23T16:30:52;18.98;;;5.75;;
54823;SDS011;40724;53.196;5.980;2023-03-23T16:33:18;13.55;;;5.70;;
54823;SDS011;40724;53.196;5.980;2023-03-23T16:35:44;22.35;;;5.57;;
54823;SDS011;40724;53.196;5.980;2023-03-23T16:38:12;22.30;;;6.38;;
54823;SDS011;40724;53.196;5.980;2023-03-23T16:40:40;35.30;;;5.75;;
54823;SDS011;40724;53.196;5.980;2023-03-23T16:43:06;16.58;;;5.88;;